createdAt,value
2019-04-11T00:01:44.750Z,2.10
2019-04-11T00:04:08.406Z,2.30
2019-04-11T00:06:37.606Z,2.10
2019-04-11T00:09:10.300Z,1.95
2019-04-11T00:11:39.585Z,2.20
2019-04-11T00:14:08.886Z,2.40
2019-04-11T00:16:39.443Z,2.10
2019-04-11T00:21:37.968Z,2.17
2019-04-11T00:24:07.931Z,2.47
2019-04-11T00:26:38.116Z,2.22
2019-04-11T00:29:07.452Z,2.40
2019-04-11T00:31:36.894Z,2.80
2019-04-11T00:34:06.849Z,2.80
2019-04-11T00:36:36.743Z,2.58
2019-04-11T00:39:11.103Z,2.40
2019-04-11T00:41:40.099Z,2.55
2019-04-11T00:44:10.403Z,2.45
2019-04-11T00:46:40.434Z,4.03
2019-04-11T00:49:10.297Z,3.27
2019-04-11T00:51:40.207Z,3.60
2019-04-11T00:54:10.782Z,2.50
2019-04-11T00:59:09.852Z,1.87
2019-04-11T01:01:39.418Z,1.90
2019-04-11T01:04:09.585Z,1.57
2019-04-11T01:06:40.446Z,1.80
2019-04-11T01:11:40.398Z,2.10
2019-04-11T01:14:11.141Z,2.55
2019-04-11T01:16:48.589Z,2.25
2019-04-11T01:19:18.439Z,2.87
2019-04-11T01:21:48.783Z,2.30
2019-04-11T01:24:19.676Z,2.60
2019-04-11T01:29:19.668Z,2.33
2019-04-11T01:32:02.369Z,2.60
2019-04-11T01:34:32.808Z,2.47
2019-04-11T01:39:41.247Z,2.60
2019-04-11T01:42:11.142Z,2.52
2019-04-11T01:44:41.004Z,2.25
2019-04-11T01:47:12.951Z,2.80
2019-04-11T01:49:42.204Z,2.80
2019-04-11T01:52:11.913Z,2.70
2019-04-11T01:54:41.422Z,2.83
2019-04-11T01:57:11.754Z,2.95
2019-04-11T01:59:41.774Z,3.20
2019-04-11T02:02:21.608Z,3.40
2019-04-11T02:04:52.444Z,3.47
2019-04-11T02:09:50.500Z,3.27
2019-04-11T02:12:20.805Z,3.83
2019-04-11T02:14:50.159Z,3.65
2019-04-11T02:17:19.869Z,3.98
2019-04-11T02:19:50.227Z,3.80
2019-04-11T02:22:38.263Z,3.37
2019-04-11T02:25:22.689Z,2.95
2019-04-11T02:27:53.012Z,3.12
2019-04-11T02:30:23.237Z,3.25
2019-04-11T02:32:53.629Z,3.30
2019-04-11T02:35:24.220Z,2.90
2019-04-11T02:37:54.901Z,3.08
2019-04-11T02:40:24.649Z,3.10
2019-04-11T02:42:54.914Z,3.08
2019-04-11T02:45:36.251Z,3.20
2019-04-11T02:47:56.510Z,3.10
2019-04-11T02:50:26.859Z,2.92
2019-04-11T02:52:56.698Z,3.00
2019-04-11T02:55:27.692Z,3.25
2019-04-11T03:00:28.706Z,3.15
2019-04-11T03:05:28.878Z,2.95
2019-04-11T03:08:01.050Z,3.60
2019-04-11T03:10:31.472Z,3.20
2019-04-11T03:15:46.735Z,3.30
2019-04-11T03:18:06.073Z,3.25
2019-04-11T03:20:39.255Z,3.33
2019-04-11T03:23:07.525Z,3.77
2019-04-11T03:25:36.252Z,3.60
2019-04-11T03:28:11.327Z,3.90
2019-04-11T03:30:54.675Z,3.83
2019-04-11T03:38:31.697Z,3.60
2019-04-11T03:43:24.085Z,3.85
2019-04-11T03:46:01.474Z,4.35
2019-04-11T03:48:29.349Z,4.75
2019-04-11T03:50:46.226Z,4.37
2019-04-11T03:53:17.270Z,4.83
2019-04-11T03:55:47.470Z,4.58
2019-04-11T03:58:19.675Z,4.12
2019-04-11T04:00:50.750Z,4.92
2019-04-11T04:05:50.645Z,5.22
2019-04-11T04:11:08.324Z,5.25
2019-04-11T04:13:39.901Z,5.12
2019-04-11T04:16:27.389Z,4.70
2019-04-11T04:19:02.943Z,4.50
2019-04-11T04:21:43.515Z,4.80
2019-04-11T04:24:37.195Z,5.05
2019-04-11T04:27:07.047Z,4.97
2019-04-11T04:29:37.789Z,5.40
2019-04-11T04:32:07.712Z,4.92
2019-04-11T04:37:07.722Z,4.37
2019-04-11T04:42:17.405Z,4.20
2019-04-11T04:44:42.305Z,4.78
2019-04-11T04:47:21.209Z,6.40
2019-04-11T04:49:41.603Z,5.92
2019-04-11T04:52:14.065Z,6.15
2019-04-11T04:57:12.927Z,7.00
2019-04-11T04:59:42.518Z,6.08
2019-04-11T05:04:43.477Z,3.90
2019-04-11T05:10:00.959Z,6.75
2019-04-11T05:12:30.301Z,8.38
2019-04-11T05:15:01.325Z,5.60
2019-04-11T05:20:06.935Z,5.25
2019-04-11T05:22:39.429Z,6.37
2019-04-11T05:25:08.526Z,4.65
2019-04-11T05:27:39.809Z,5.55
2019-04-11T05:30:09.445Z,4.62
2019-04-11T05:32:39.543Z,4.22
2019-04-11T05:35:09.031Z,3.80
2019-04-11T05:37:43.163Z,4.80
2019-04-11T05:40:12.678Z,4.70
2019-04-11T05:42:42.066Z,5.45
2019-04-11T05:45:17.341Z,5.03
2019-04-11T05:47:43.500Z,4.50
2019-04-11T05:50:20.068Z,4.00
2019-04-11T05:52:56.731Z,4.33
2019-04-11T05:55:45.818Z,4.85
2019-04-11T05:58:15.966Z,4.45
2019-04-11T06:03:23.917Z,3.85
2019-04-11T06:06:04.755Z,4.53
2019-04-11T06:08:34.064Z,4.60
2019-04-11T06:11:16.400Z,5.25
2019-04-11T06:13:56.925Z,3.62
2019-04-11T06:16:36.067Z,4.00
2019-04-11T06:21:30.050Z,3.60
2019-04-11T06:24:16.549Z,3.85
2019-04-11T06:26:51.147Z,4.72
2019-04-11T06:29:31.237Z,3.42
2019-04-11T06:32:13.832Z,3.12
2019-04-11T06:34:51.256Z,3.52
2019-04-11T06:37:38.291Z,4.92
2019-04-11T06:40:24.892Z,4.78
2019-04-11T06:43:11.977Z,3.67
2019-04-11T06:45:46.126Z,3.62
2019-04-11T06:48:18.869Z,9.88
2019-04-11T06:51:08.764Z,3.80
2019-04-11T06:53:39.991Z,4.10
2019-04-11T06:56:14.095Z,4.78
2019-04-11T06:58:47.915Z,4.15
2019-04-11T07:01:25.857Z,4.53
2019-04-11T07:03:57.494Z,4.85
2019-04-11T07:06:29.313Z,4.42
2019-04-11T07:09:18.702Z,4.42
2019-04-11T07:11:52.647Z,4.50
2019-04-11T07:14:26.867Z,3.95
2019-04-11T07:17:13.851Z,4.72
2019-04-11T07:20:02.907Z,4.22
2019-04-11T07:22:50.887Z,4.15
2019-04-11T07:25:53.912Z,4.25
2019-04-11T07:28:29.489Z,4.08
2019-04-11T07:31:16.908Z,3.87
2019-04-11T07:33:56.175Z,4.28
2019-04-11T07:36:46.205Z,4.30
2019-04-11T07:39:26.588Z,4.08
2019-04-11T07:42:00.391Z,3.90
2019-04-11T07:44:32.289Z,4.40
2019-04-11T07:47:23.210Z,4.10
2019-04-11T07:49:54.900Z,4.08
2019-04-11T07:52:22.935Z,4.12
2019-04-11T07:54:52.199Z,4.35
2019-04-11T07:57:26.328Z,3.92
2019-04-11T08:00:13.225Z,5.25
2019-04-11T08:03:00.334Z,5.87
2019-04-11T08:05:47.146Z,5.47
2019-04-11T08:08:26.890Z,4.65
2019-04-11T08:11:09.542Z,5.00
2019-04-11T08:13:57.136Z,4.17
2019-04-11T08:16:35.026Z,6.80
2019-04-11T08:19:15.321Z,5.30
2019-04-11T08:21:54.833Z,6.33
2019-04-11T08:24:37.472Z,5.08
2019-04-11T08:27:09.403Z,4.20
2019-04-11T08:29:40.862Z,4.58
2019-04-11T08:32:27.679Z,5.60
2019-04-11T08:35:12.259Z,4.12
2019-04-11T08:37:55.977Z,3.65
2019-04-11T08:40:28.139Z,3.77
2019-04-11T08:43:07.880Z,3.60
2019-04-11T08:45:40.284Z,4.10
2019-04-11T08:48:11.406Z,4.05
2019-04-11T08:50:42.815Z,3.75
2019-04-11T08:53:20.609Z,4.58
2019-04-11T08:56:10.489Z,3.60
2019-04-11T08:58:41.778Z,3.42
2019-04-11T09:01:18.449Z,3.83
2019-04-11T09:04:04.124Z,4.10
2019-04-11T09:06:28.340Z,3.70
2019-04-11T09:09:15.292Z,3.75
2019-04-11T09:11:47.009Z,4.10
2019-04-11T09:14:35.888Z,3.40
2019-04-11T09:17:19.906Z,5.20
2019-04-11T09:19:57.042Z,3.60
2019-04-11T09:22:29.012Z,2.90
2019-04-11T09:25:10.907Z,3.47
2019-04-11T09:27:44.847Z,3.33
2019-04-11T09:30:19.061Z,4.20
2019-04-11T09:32:53.274Z,3.33
2019-04-11T09:35:41.647Z,3.58
2019-04-11T09:38:12.232Z,3.47
2019-04-11T09:40:43.742Z,3.27
2019-04-11T09:43:18.126Z,2.72
2019-04-11T09:46:06.192Z,2.80
2019-04-11T09:48:37.925Z,2.90
2019-04-11T09:51:27.441Z,3.12
2019-04-11T09:54:08.523Z,3.25
2019-04-11T09:56:56.208Z,3.75
2019-04-11T09:59:27.210Z,3.08
2019-04-11T10:01:58.261Z,2.70
2019-04-11T10:04:29.755Z,2.98
2019-04-11T10:07:03.848Z,2.90
2019-04-11T10:09:44.173Z,2.87
2019-04-11T10:12:31.901Z,3.52
2019-04-11T10:15:03.192Z,4.33
2019-04-11T10:17:34.230Z,3.70
2019-04-11T10:22:41.431Z,4.08
2019-04-11T10:25:13.176Z,2.77
2019-04-11T10:27:53.122Z,2.85
2019-04-11T10:30:41.900Z,3.20
2019-04-11T10:33:30.757Z,2.80
2019-04-11T10:38:48.778Z,2.87
2019-04-11T10:41:26.272Z,3.10
2019-04-11T10:43:55.402Z,2.45
2019-04-11T10:46:39.582Z,2.65
2019-04-11T10:49:11.586Z,2.45
2019-04-11T10:51:45.727Z,2.83
2019-04-11T10:54:15.627Z,3.65
2019-04-11T10:56:55.758Z,2.90
2019-04-11T10:59:27.913Z,3.40
2019-04-11T11:02:05.051Z,3.20
2019-04-11T11:04:38.899Z,3.30
2019-04-11T11:07:11.489Z,2.87
2019-04-11T11:09:52.576Z,3.08
2019-04-11T11:12:32.946Z,3.00
2019-04-11T11:23:45.019Z,4.67
2019-04-11T11:26:22.537Z,3.52
2019-04-11T11:29:15.226Z,3.90
2019-04-11T11:31:45.833Z,4.80
2019-04-11T11:34:23.234Z,3.40
2019-04-11T11:36:54.981Z,2.92
2019-04-11T11:39:26.905Z,3.12
2019-04-11T11:42:14.479Z,3.17
2019-04-11T11:44:45.271Z,3.37
2019-04-11T11:47:35.626Z,3.30
2019-04-11T11:50:06.134Z,6.30
2019-04-11T11:52:46.351Z,4.80
2019-04-11T11:55:27.224Z,4.60
2019-04-11T11:58:00.816Z,3.37
2019-04-11T12:00:31.673Z,3.55
2019-04-11T12:03:05.377Z,5.17
2019-04-11T12:05:39.314Z,7.12
2019-04-11T12:08:13.919Z,6.67
2019-04-11T12:10:46.760Z,2.87
2019-04-11T12:13:17.618Z,3.80
2019-04-11T12:18:35.240Z,3.35
2019-04-11T12:21:20.690Z,3.00
2019-04-11T12:24:02.139Z,3.27
2019-04-11T12:26:30.372Z,3.58
2019-04-11T12:29:14.110Z,3.60
2019-04-11T12:31:46.054Z,4.60
2019-04-11T12:34:17.149Z,3.20
2019-04-11T12:39:37.253Z,4.10
2019-04-11T12:42:08.095Z,3.17
2019-04-11T12:47:25.123Z,4.67
2019-04-11T12:52:42.155Z,2.83
2019-04-11T12:55:12.991Z,3.65
2019-04-11T13:00:19.593Z,4.05
2019-04-11T13:03:09.258Z,3.65
2019-04-11T13:05:45.520Z,3.77
2019-04-11T13:08:24.958Z,3.35
2019-04-11T13:10:54.262Z,4.35
2019-04-11T13:13:25.096Z,3.83
2019-04-11T13:18:25.848Z,3.83
2019-04-11T13:23:40.512Z,2.60
2019-04-11T13:26:27.233Z,3.45
2019-04-11T13:29:04.197Z,4.35
2019-04-11T13:31:51.025Z,4.72
2019-04-11T13:34:21.860Z,4.72
2019-04-11T13:39:50.345Z,6.62
2019-04-11T13:42:30.007Z,6.33
2019-04-11T13:44:59.290Z,3.10
2019-04-11T13:47:42.122Z,4.60
2019-04-11T13:50:16.769Z,3.52
2019-04-11T13:52:59.463Z,4.60
2019-04-11T13:55:28.764Z,4.75
2019-04-11T13:58:11.275Z,4.53
2019-04-11T14:00:42.404Z,3.50
2019-04-11T14:03:29.536Z,3.80
2019-04-11T14:06:00.372Z,3.72
2019-04-11T14:11:22.320Z,3.80
2019-04-11T14:13:51.314Z,3.25
2019-04-11T14:16:24.903Z,3.47
2019-04-11T14:19:12.414Z,2.90
2019-04-11T14:21:43.782Z,3.77
2019-04-11T14:27:00.099Z,4.15
2019-04-11T14:29:34.006Z,3.40
2019-04-11T14:32:04.788Z,3.17
2019-04-11T14:37:11.431Z,3.85
2019-04-11T14:39:42.271Z,4.83
2019-04-11T14:44:56.822Z,3.90
2019-04-11T14:47:38.963Z,4.28
2019-04-11T14:50:12.646Z,4.85
2019-04-11T14:52:55.772Z,4.78
2019-04-11T14:55:26.303Z,5.22
2019-04-11T14:58:02.973Z,6.55
2019-04-11T15:00:33.811Z,4.80
2019-04-11T15:05:46.629Z,5.30
2019-04-11T15:08:17.732Z,5.12
2019-04-11T15:10:54.035Z,5.47
2019-04-11T15:13:24.902Z,3.52
2019-04-11T15:18:41.923Z,3.92
2019-04-11T15:21:15.815Z,4.65
2019-04-11T15:23:44.823Z,4.17
2019-04-11T15:29:00.626Z,3.08
2019-04-11T15:34:11.822Z,3.22
2019-04-11T15:36:42.642Z,4.12
2019-04-11T15:41:43.415Z,4.15
2019-04-11T15:47:13.964Z,5.78
2019-04-11T15:49:46.543Z,4.15
2019-04-11T15:52:16.862Z,4.50
2019-04-11T15:55:05.406Z,4.78
2019-04-11T15:57:36.046Z,4.28
2019-04-11T16:02:43.863Z,3.30
2019-04-11T16:05:31.778Z,2.90
2019-04-11T16:11:12.051Z,3.75
2019-04-11T16:13:52.027Z,3.42
2019-04-11T16:16:22.865Z,4.40
2019-04-11T16:21:46.656Z,3.92
2019-04-11T16:24:27.442Z,3.50
2019-04-11T16:27:01.230Z,4.47
2019-04-11T16:32:30.246Z,4.08
2019-04-11T16:35:01.040Z,4.35
2019-04-11T16:37:30.465Z,4.72
2019-04-11T16:40:16.272Z,3.90
2019-04-11T16:42:45.879Z,3.40
2019-04-11T16:45:32.996Z,3.75
2019-04-11T16:48:04.755Z,3.85
2019-04-11T16:50:33.747Z,4.10
2019-04-11T16:53:02.742Z,3.60
2019-04-11T16:55:53.654Z,3.80
2019-04-11T16:58:21.616Z,4.40
2019-04-11T17:00:52.536Z,5.62
2019-04-11T17:03:24.765Z,3.60
2019-04-11T17:05:55.764Z,4.72
2019-04-11T17:08:26.434Z,3.85
2019-04-11T17:11:09.931Z,4.40
2019-04-11T17:13:38.929Z,5.47
2019-04-11T17:16:09.759Z,5.15
2019-04-11T17:21:08.710Z,3.45
2019-04-11T17:26:07.269Z,5.37
2019-04-11T17:28:36.568Z,4.60
2019-04-11T17:31:05.875Z,3.60
2019-04-11T17:33:34.862Z,3.98
2019-04-11T17:36:03.865Z,4.67
2019-04-11T17:38:37.266Z,4.20
2019-04-11T17:41:10.899Z,3.60
2019-04-11T17:43:37.592Z,3.30
2019-04-11T17:46:09.968Z,4.37
2019-04-11T17:48:39.272Z,4.85
2019-04-11T17:51:09.664Z,4.83
2019-04-11T17:56:07.476Z,4.15
2019-04-11T17:58:36.468Z,5.10
2019-04-11T18:01:07.612Z,3.77
2019-04-11T18:03:36.604Z,4.50
2019-04-11T18:06:05.602Z,4.42
2019-04-11T18:08:34.898Z,5.00
2019-04-11T18:11:04.178Z,5.00
2019-04-11T18:13:33.190Z,3.67
2019-04-11T18:16:02.491Z,4.12
2019-04-11T18:18:34.905Z,3.37
2019-04-11T18:21:07.096Z,4.75
2019-04-11T18:23:35.850Z,4.35
2019-04-11T18:28:33.908Z,5.03
2019-04-11T18:31:03.007Z,4.28
2019-04-11T18:33:33.125Z,4.40
2019-04-11T18:36:08.070Z,4.25
2019-04-11T18:38:37.237Z,4.40
2019-04-11T18:41:06.294Z,5.10
2019-04-11T18:43:41.394Z,4.28
2019-04-11T18:46:11.001Z,4.47
2019-04-11T18:48:40.295Z,4.25
2019-04-11T18:51:09.287Z,4.20
2019-04-11T18:53:47.273Z,4.95
2019-04-11T18:56:16.811Z,4.40
2019-04-11T18:58:46.721Z,5.25
2019-04-11T19:01:18.162Z,5.55
2019-04-11T19:03:47.157Z,5.55
2019-04-11T19:06:27.246Z,4.78
2019-04-11T19:08:46.677Z,5.60
2019-04-11T19:11:16.314Z,5.15
2019-04-11T19:13:47.022Z,4.40
2019-04-11T19:16:16.755Z,4.50
2019-04-11T19:18:47.716Z,5.00
2019-04-11T19:21:20.258Z,4.87
2019-04-11T19:23:47.089Z,5.03
2019-04-11T19:26:17.717Z,4.90
2019-04-11T19:28:47.358Z,5.00
2019-04-11T19:31:17.140Z,4.95
2019-04-11T19:33:46.134Z,5.25
2019-04-11T19:36:18.199Z,5.37
2019-04-11T19:38:53.029Z,6.65
2019-04-11T19:41:22.332Z,5.08
2019-04-11T19:43:51.325Z,5.28
2019-04-11T19:46:20.990Z,4.78
2019-04-11T19:48:50.233Z,4.93
2019-04-11T19:51:19.228Z,3.75
2019-04-11T19:53:48.159Z,4.12
2019-04-11T19:56:19.055Z,4.03
2019-04-11T20:01:16.131Z,4.78
2019-04-11T20:03:45.419Z,6.80
2019-04-11T20:06:16.256Z,4.87
2019-04-11T20:11:13.932Z,4.50
2019-04-11T20:13:43.235Z,4.67
2019-04-11T20:16:13.099Z,5.58
2019-04-11T20:18:51.086Z,4.97
2019-04-11T20:23:42.401Z,6.92
2019-04-11T20:26:11.887Z,7.62
2019-04-11T20:28:41.186Z,10.30
2019-04-11T20:31:10.488Z,8.93
2019-04-11T20:33:39.772Z,7.22
2019-04-11T20:36:11.274Z,7.80
2019-04-11T20:38:39.322Z,9.13
2019-04-11T20:41:08.303Z,7.80
2019-04-11T20:43:37.296Z,6.58
2019-04-11T20:46:06.595Z,7.90
2019-04-11T20:48:35.588Z,6.70
2019-04-11T20:51:04.891Z,6.37
2019-04-11T20:53:36.776Z,8.13
2019-04-11T20:56:09.759Z,8.98
2019-04-11T20:58:39.563Z,6.40
2019-04-11T21:01:08.849Z,5.92
2019-04-11T21:03:38.149Z,6.42
2019-04-11T21:06:07.451Z,4.72
2019-04-11T21:08:36.860Z,4.70
2019-04-11T21:11:06.357Z,5.40
2019-04-11T21:13:38.173Z,4.85
2019-04-11T21:18:34.872Z,5.33
2019-04-11T21:21:04.175Z,7.78
2019-04-11T21:23:33.473Z,6.60
2019-04-11T21:26:02.775Z,5.45
2019-04-11T21:28:32.079Z,5.17
2019-04-11T21:31:01.374Z,5.12
2019-04-11T21:33:34.226Z,4.45
2019-04-11T21:38:31.564Z,3.58
2019-04-11T21:41:01.034Z,3.58
2019-04-11T21:43:30.339Z,3.92
2019-04-11T21:45:59.635Z,3.98
2019-04-11T21:48:28.935Z,4.15
2019-04-11T21:50:59.161Z,3.83
2019-04-11T21:53:36.445Z,4.20
2019-04-11T21:55:58.990Z,4.12
2019-04-11T21:58:28.288Z,3.40
2019-04-11T22:01:00.662Z,3.67
2019-04-11T22:03:30.268Z,3.60
2019-04-11T22:06:00.107Z,3.75
2019-04-11T22:08:34.057Z,3.83
2019-04-11T22:11:02.961Z,3.62
2019-04-11T22:13:31.465Z,3.70
2019-04-11T22:16:00.761Z,3.55
2019-04-11T22:18:30.068Z,3.65
2019-04-11T22:20:59.366Z,3.75
2019-04-11T22:23:28.663Z,3.35
2019-04-11T22:25:57.965Z,3.60
2019-04-11T22:28:27.266Z,3.65
2019-04-11T22:30:56.564Z,3.30
2019-04-11T22:33:39.383Z,3.40
2019-04-11T22:36:08.990Z,3.25
2019-04-11T22:38:38.289Z,3.72
2019-04-11T22:41:07.590Z,3.70
2019-04-11T22:43:38.149Z,3.62
2019-04-11T22:48:39.014Z,3.30
2019-04-11T22:53:40.766Z,3.77
2019-04-11T22:56:11.680Z,3.83
2019-04-11T23:01:09.059Z,3.50
2019-04-11T23:03:47.603Z,3.55
2019-04-11T23:06:17.214Z,3.62
2019-04-11T23:11:17.319Z,3.52
2019-04-11T23:13:46.619Z,3.98
2019-04-11T23:16:15.920Z,3.60
2019-04-11T23:18:45.223Z,3.75
2019-04-11T23:21:15.050Z,3.37
2019-04-11T23:23:45.663Z,3.85
2019-04-11T23:26:14.966Z,3.65
2019-04-11T23:28:46.745Z,4.05
2019-04-11T23:33:44.073Z,4.28
2019-04-11T23:36:13.090Z,4.08
2019-04-11T23:38:42.090Z,4.55
2019-04-11T23:41:11.381Z,4.17
2019-04-11T23:43:40.374Z,4.45
2019-04-11T23:46:09.369Z,4.00
2019-04-11T23:48:38.361Z,4.05
2019-04-11T23:51:07.355Z,4.20
2019-04-11T23:53:36.655Z,4.53
2019-04-11T23:56:05.647Z,4.40
2019-04-11T23:58:34.640Z,4.70
